Time;durP1;ratioP1;P1;durP2;ratioP2;P2;SDS_P1;SDS_P2;PMS_P1;PMS_P2;Temp;Humidity;BMP_temperature;BMP_pressure;BME280_temperature;BME280_humidity;BME280_pressure;Samples;Min_cycle;Max_cycle;Signal;HPM_P1;HPM_P2
2022/01/27 00:00:32;;;;;;;34.90;15.65;;;5.60;77.90;;;;;;5070155;28;20091;-72
2022/01/27 00:07:41;;;;;;;34.40;15.55;;;5.60;77.40;;;;;;5058446;28;20044;-72
2022/01/27 00:12:45;;;;;;;33.92;15.18;;;5.50;77.60;;;;;;5055427;28;20063;-72
2022/01/27 00:15:14;;;;;;;34.30;17.00;;;5.50;77.70;;;;;;5052878;28;20040;-72
2022/01/27 00:17:47;;;;;;;32.70;15.32;;;5.40;77.70;;;;;;5052185;28;20041;-72
2022/01/27 00:20:14;;;;;;;34.17;14.95;;;5.30;77.80;;;;;;5059227;28;20098;-72
2022/01/27 00:22:42;;;;;;;30.83;15.63;;;5.30;77.80;;;;;;5063991;28;20068;-72
2022/01/27 00:25:09;;;;;;;34.72;14.55;;;5.20;78.20;;;;;;5065184;28;20037;-72
2022/01/27 00:27:34;;;;;;;31.65;15.15;;;5.20;78.50;;;;;;5059292;28;20489;-72
2022/01/27 00:30:05;;;;;;;30.20;15.83;;;5.20;78.80;;;;;;5044289;28;20047;-72
2022/01/27 00:32:32;;;;;;;38.13;16.10;;;5.10;78.70;;;;;;5059841;28;20044;-72
2022/01/27 00:34:58;;;;;;;33.28;16.42;;;5.10;78.70;;;;;;5058764;28;20075;-72
2022/01/27 00:37:24;;;;;;;30.30;15.77;;;5.10;78.60;;;;;;5056155;28;20028;-72
2022/01/27 00:39:50;;;;;;;28.48;15.77;;;5.10;78.80;;;;;;5044437;28;20040;-72
2022/01/27 00:42:16;;;;;;;36.63;16.17;;;5.00;78.90;;;;;;5039962;28;20397;-72
2022/01/27 00:44:42;;;;;;;30.83;16.13;;;5.00;79.00;;;;;;5050371;28;20044;-72
2022/01/27 00:47:08;;;;;;;32.97;16.80;;;4.90;79.00;;;;;;5057819;28;20041;-72
2022/01/27 00:49:38;;;;;;;36.92;18.02;;;4.90;78.90;;;;;;5043298;28;20279;-72
2022/01/27 00:52:07;;;;;;;34.78;17.90;;;4.90;78.80;;;;;;5018586;28;20048;-72
2022/01/27 00:54:36;;;;;;;38.92;19.15;;;4.90;78.70;;;;;;5042927;28;20073;-72
2022/01/27 00:57:15;;;;;;;41.30;19.83;;;4.80;78.90;;;;;;5037348;28;20053;-72
2022/01/27 01:02:28;;;;;;;36.63;20.27;;;4.80;78.90;;;;;;5063626;28;20045;-72
2022/01/27 01:05:12;;;;;;;40.42;19.85;;;4.80;79.00;;;;;;5051012;28;20091;-72
2022/01/27 01:07:42;;;;;;;36.92;19.75;;;4.80;79.00;;;;;;5056437;28;20382;-72
2022/01/27 01:15:50;;;;;;;39.50;18.80;;;4.80;78.80;;;;;;5056281;28;20052;-72
2022/01/27 01:36:53;;;;;;;41.70;19.70;;;4.60;79.60;;;;;;5067184;28;20448;-72
2022/01/27 01:39:19;;;;;;;40.17;19.70;;;4.60;79.50;;;;;;5064408;28;20047;-72
2022/01/27 01:41:52;;;;;;;42.47;20.10;;;4.60;79.60;;;;;;5058313;28;20037;-72
2022/01/27 01:44:18;;;;;;;39.95;20.60;;;4.50;79.60;;;;;;5044138;28;20070;-72
2022/01/27 01:46:44;;;;;;;39.95;20.33;;;4.50;79.60;;;;;;5064144;28;20533;-72
2022/01/27 01:49:10;;;;;;;40.17;21.30;;;4.50;79.60;;;;;;5064225;28;20037;-72
2022/01/27 01:51:37;;;;;;;45.95;20.73;;;4.40;79.90;;;;;;5045707;28;20036;-72
2022/01/27 01:54:04;;;;;;;38.85;20.30;;;4.40;79.80;;;;;;5061498;28;20408;-72
2022/01/27 01:56:29;;;;;;;41.97;21.23;;;4.50;79.80;;;;;;5023281;28;20492;-72
2022/01/27 01:58:55;;;;;;;40.50;20.80;;;4.40;79.80;;;;;;5035156;28;20036;-72
2022/01/27 02:01:21;;;;;;;42.03;23.03;;;4.40;79.90;;;;;;5065318;28;20094;-72
2022/01/27 02:03:47;;;;;;;40.67;20.03;;;4.40;80.00;;;;;;5053521;28;20041;-72
2022/01/27 02:06:22;;;;;;;43.05;22.13;;;4.40;80.00;;;;;;5036163;28;20455;-72
2022/01/27 02:19:43;;;;;;;41.45;21.20;;;4.80;79.00;;;;;;5063848;28;20059;-72
2022/01/27 02:22:09;;;;;;;42.33;22.45;;;4.80;79.20;;;;;;5036503;28;20044;-72
2022/01/27 02:24:36;;;;;;;43.70;22.27;;;4.90;78.90;;;;;;5034021;28;20174;-72
2022/01/27 02:27:04;;;;;;;42.63;22.05;;;4.90;78.90;;;;;;5035482;28;20049;-72
2022/01/27 02:29:30;;;;;;;45.10;21.90;;;4.90;78.80;;;;;;5034905;28;20448;-72
2022/01/27 02:31:59;;;;;;;41.60;20.98;;;5.00;78.80;;;;;;5042211;28;20910;-72
2022/01/27 02:34:25;;;;;;;44.08;22.33;;;5.00;78.80;;;;;;5053191;28;20052;-72
2022/01/27 02:36:51;;;;;;;46.47;23.05;;;5.10;78.80;;;;;;5034678;28;20481;-73
2022/01/27 02:39:19;;;;;;;42.53;22.52;;;5.10;78.80;;;;;;5049041;28;20045;-72
2022/01/27 02:41:51;;;;;;;39.45;21.17;;;5.10;78.70;;;;;;5066188;28;20041;-72
2022/01/27 02:44:45;;;;;;;44.17;21.73;;;5.10;78.90;;;;;;5037242;28;20041;-72
2022/01/27 02:47:12;;;;;;;40.17;22.15;;;5.10;78.80;;;;;;5054939;28;20048;-72
2022/01/27 02:49:39;;;;;;;42.72;22.40;;;5.10;78.80;;;;;;5037124;28;20102;-72
2022/01/27 02:52:05;;;;;;;47.38;22.70;;;5.20;78.70;;;;;;5044692;28;20069;-72
2022/01/27 02:54:31;;;;;;;45.88;21.92;;;5.20;79.00;;;;;;5050919;28;20041;-72
2022/01/27 02:56:56;;;;;;;42.57;21.50;;;5.20;79.00;;;;;;5058186;28;20052;-72
2022/01/27 02:59:23;;;;;;;39.13;20.37;;;5.20;78.90;;;;;;5063150;28;20056;-73
2022/01/27 03:01:49;;;;;;;43.92;20.88;;;5.20;79.00;;;;;;5031578;28;20379;-73
2022/01/27 03:04:17;;;;;;;40.85;20.08;;;5.20;79.10;;;;;;5042283;28;20028;-72
2022/01/27 03:06:44;;;;;;;41.65;20.48;;;5.30;79.10;;;;;;5053989;28;20041;-72
2022/01/27 03:09:09;;;;;;;41.88;20.38;;;5.30;79.10;;;;;;5062609;28;20068;-72
2022/01/27 03:11:51;;;;;;;45.90;21.90;;;5.30;78.90;;;;;;5005142;28;20041;-72
2022/01/27 03:14:21;;;;;;;39.53;19.67;;;5.40;79.00;;;;;;5046260;28;20055;-73
2022/01/27 03:16:47;;;;;;;38.28;18.73;;;5.40;78.90;;;;;;5064791;28;20193;-72
2022/01/27 03:19:13;;;;;;;42.20;19.50;;;5.40;79.10;;;;;;5034865;28;20048;-72
2022/01/27 03:21:40;;;;;;;38.13;19.67;;;5.40;78.90;;;;;;5031259;28;20055;-72
2022/01/27 03:24:06;;;;;;;38.55;18.75;;;5.40;79.00;;;;;;5057777;28;20033;-73
2022/01/27 03:26:32;;;;;;;40.63;19.40;;;5.40;79.20;;;;;;5057395;28;20048;-73
2022/01/27 03:28:59;;;;;;;43.13;18.70;;;5.40;79.10;;;;;;5062648;28;20055;-72
2022/01/27 03:31:26;;;;;;;39.45;17.90;;;5.40;79.20;;;;;;5066375;28;20043;-72
2022/01/27 03:33:52;;;;;;;32.50;17.85;;;5.40;79.30;;;;;;5041220;28;20469;-72
2022/01/27 03:36:18;;;;;;;35.20;17.50;;;5.40;79.30;;;;;;5050072;28;20044;-72
2022/01/27 03:38:44;;;;;;;37.92;17.38;;;5.50;79.20;;;;;;5033484;28;20068;-72
2022/01/27 03:41:11;;;;;;;33.80;17.67;;;5.50;79.20;;;;;;5046122;28;20043;-72
2022/01/27 03:43:39;;;;;;;41.83;17.17;;;5.50;79.30;;;;;;5069558;28;20040;-72
2022/01/27 03:46:05;;;;;;;43.30;17.75;;;5.50;79.30;;;;;;5053406;28;20571;-72
2022/01/27 03:48:32;;;;;;;46.55;18.77;;;5.50;79.30;;;;;;5032356;28;20032;-72
2022/01/27 03:50:58;;;;;;;34.80;17.20;;;5.50;79.60;;;;;;5038584;28;20719;-72
2022/01/27 03:53:24;;;;;;;39.73;17.63;;;5.50;79.60;;;;;;5035489;28;20120;-72
2022/01/27 03:55:49;;;;;;;36.55;17.38;;;5.60;79.70;;;;;;5044906;28;20055;-73
2022/01/27 03:58:18;;;;;;;35.03;16.20;;;5.50;79.70;;;;;;5051361;28;20037;-73
2022/01/27 04:00:44;;;;;;;36.40;16.73;;;5.60;79.80;;;;;;5062998;28;20040;-73
2022/01/27 04:03:12;;;;;;;37.67;16.63;;;5.60;79.60;;;;;;5071352;28;20036;-72
2022/01/27 04:05:49;;;;;;;42.55;16.83;;;5.60;79.70;;;;;;5015572;28;20041;-72
2022/01/27 04:08:14;;;;;;;37.05;18.30;;;5.60;79.90;;;;;;5035419;28;20127;-72
2022/01/27 04:10:40;;;;;;;32.40;16.90;;;5.70;79.90;;;;;;5044280;28;20574;-72
2022/01/27 04:13:07;;;;;;;37.63;17.50;;;5.70;79.80;;;;;;5026365;28;20037;-72
2022/01/27 04:15:37;;;;;;;29.50;15.88;;;5.70;79.80;;;;;;5049200;28;20052;-72
2022/01/27 04:18:04;;;;;;;37.67;16.98;;;5.70;79.80;;;;;;5028822;28;20056;-72
2022/01/27 04:20:30;;;;;;;30.90;15.13;;;5.80;79.80;;;;;;5040034;28;20540;-72
2022/01/27 04:22:55;;;;;;;37.00;14.57;;;5.80;79.80;;;;;;5053366;28;20075;-72
2022/01/27 04:25:21;;;;;;;33.23;15.00;;;5.80;79.90;;;;;;5036876;28;20049;-72
2022/01/27 04:27:51;;;;;;;34.57;14.67;;;5.80;80.00;;;;;;5038470;28;20041;-72
2022/01/27 04:30:21;;;;;;;42.10;16.10;;;5.80;80.00;;;;;;5044427;28;20037;-72
2022/01/27 04:32:53;;;;;;;32.28;14.10;;;5.80;80.60;;;;;;5073197;28;20040;-72
2022/01/27 04:35:21;;;;;;;35.65;14.38;;;5.80;80.90;;;;;;5055782;28;20071;-72
2022/01/27 04:48:42;;;;;;;33.17;14.48;;;5.80;81.20;;;;;;5057510;28;20112;-72
2022/01/27 04:51:11;;;;;;;35.17;14.10;;;5.80;81.20;;;;;;5041738;28;20037;-72
2022/01/27 04:54:02;;;;;;;34.88;14.63;;;5.80;81.20;;;;;;5065174;28;20170;-72
2022/01/27 04:56:28;;;;;;;31.27;12.88;;;5.80;81.30;;;;;;5053530;28;20047;-72
2022/01/27 04:58:58;;;;;;;40.25;14.85;;;5.80;81.40;;;;;;5033445;28;20525;-72
2022/01/27 05:01:33;;;;;;;35.47;14.38;;;5.80;81.50;;;;;;5032190;28;20106;-72
2022/01/27 05:04:09;;;;;;;40.28;14.02;;;5.80;81.40;;;;;;5047148;28;20476;-72
2022/01/27 05:06:35;;;;;;;35.55;13.25;;;5.90;81.60;;;;;;5055203;28;20127;-72
2022/01/27 05:09:00;;;;;;;32.77;13.53;;;5.90;81.60;;;;;;5047836;28;20076;-72
2022/01/27 05:11:33;;;;;;;41.20;14.33;;;5.90;82.10;;;;;;5060728;28;20544;-72
2022/01/27 05:14:09;;;;;;;37.03;14.40;;;5.90;82.60;;;;;;5040246;28;20124;-72
2022/01/27 05:16:35;;;;;;;48.28;15.60;;;5.80;83.00;;;;;;5053085;28;20045;-73
2022/01/27 05:19:01;;;;;;;38.13;14.03;;;5.80;83.40;;;;;;5037118;28;20041;-73
2022/01/27 05:21:26;;;;;;;33.20;14.33;;;5.80;83.60;;;;;;5035061;28;20512;-73
2022/01/27 05:23:52;;;;;;;35.30;14.57;;;5.80;83.70;;;;;;5039221;28;20104;-73
2022/01/27 05:26:18;;;;;;;41.10;14.03;;;5.80;83.80;;;;;;5043221;28;20093;-73
2022/01/27 05:28:43;;;;;;;36.30;13.90;;;5.80;83.70;;;;;;5015487;28;20406;-73
2022/01/27 05:31:09;;;;;;;38.93;14.87;;;5.80;83.80;;;;;;5035940;28;20226;-73
2022/01/27 05:33:35;;;;;;;35.30;14.13;;;5.80;83.50;;;;;;5033575;28;20041;-73
2022/01/27 05:36:02;;;;;;;36.20;14.30;;;5.90;83.40;;;;;;5021341;28;20570;-72
2022/01/27 05:38:28;;;;;;;41.47;13.77;;;5.90;83.30;;;;;;5044204;28;20063;-72
2022/01/27 05:40:57;;;;;;;37.97;13.68;;;6.00;83.30;;;;;;5063317;28;20048;-73
2022/01/27 05:43:22;;;;;;;34.83;13.97;;;6.00;83.40;;;;;;5061404;28;20083;-73
2022/01/27 05:45:49;;;;;;;43.83;14.20;;;6.00;83.70;;;;;;5026915;28;20647;-73
2022/01/27 05:48:16;;;;;;;40.40;15.05;;;6.00;84.10;;;;;;5061472;28;20124;-73
2022/01/27 05:50:42;;;;;;;40.83;14.38;;;6.00;84.40;;;;;;5035666;28;20041;-73
2022/01/27 05:53:09;;;;;;;46.83;15.77;;;5.90;84.80;;;;;;5044289;28;20128;-73
2022/01/27 05:55:35;;;;;;;43.00;16.13;;;5.90;85.10;;;;;;5045300;28;20501;-74
2022/01/27 05:58:01;;;;;;;43.67;16.87;;;5.80;85.40;;;;;;5040719;28;20127;-73
2022/01/27 06:00:27;;;;;;;46.43;16.90;;;5.80;85.70;;;;;;5059118;28;20052;-73
2022/01/27 06:02:54;;;;;;;38.85;16.58;;;5.80;86.10;;;;;;5037701;28;20040;-73
2022/01/27 06:05:20;;;;;;;42.65;15.40;;;5.80;86.40;;;;;;5028515;28;20045;-73
2022/01/27 06:07:45;;;;;;;43.90;16.33;;;5.80;86.40;;;;;;5023511;28;20767;-73
2022/01/27 06:10:19;;;;;;;48.78;17.45;;;5.80;86.40;;;;;;5050329;28;20044;-73
2022/01/27 06:12:56;;;;;;;53.47;17.33;;;5.80;86.50;;;;;;5046808;28;20050;-73
2022/01/27 06:15:24;;;;;;;44.75;16.73;;;5.80;86.50;;;;;;5035488;28;20081;-73
2022/01/27 06:17:50;;;;;;;46.85;17.23;;;5.80;86.90;;;;;;5047632;28;20146;-73
2022/01/27 06:20:18;;;;;;;44.85;16.40;;;5.80;87.00;;;;;;5044140;28;20037;-74
2022/01/27 06:22:43;;;;;;;48.80;17.88;;;5.80;87.10;;;;;;5049946;28;20045;-74
2022/01/27 06:25:14;;;;;;;44.75;15.93;;;5.80;87.20;;;;;;5025455;28;20104;-73
2022/01/27 06:27:40;;;;;;;45.78;16.52;;;5.80;87.20;;;;;;5053115;28;20032;-73
2022/01/27 06:30:07;;;;;;;48.60;16.87;;;5.80;87.30;;;;;;5008841;28;20409;-74
2022/01/27 06:32:34;;;;;;;45.30;16.40;;;5.80;87.30;;;;;;5033852;28;20106;-73
2022/01/27 06:35:00;;;;;;;46.15;17.70;;;5.80;87.40;;;;;;5056784;28;20504;-73
2022/01/27 06:37:25;;;;;;;48.40;16.37;;;5.90;87.40;;;;;;5046094;28;20048;-73
2022/01/27 06:39:52;;;;;;;48.77;16.27;;;5.90;87.20;;;;;;5057847;28;20404;-73
2022/01/27 06:42:19;;;;;;;47.20;16.33;;;5.90;87.40;;;;;;5052269;28;20548;-73
2022/01/27 06:44:44;;;;;;;48.78;15.88;;;5.90;87.30;;;;;;5032682;28;20120;-73
2022/01/27 06:47:10;;;;;;;42.43;15.27;;;5.90;87.30;;;;;;5032956;28;20132;-73
2022/01/27 06:49:36;;;;;;;47.00;14.97;;;5.90;87.20;;;;;;5047949;28;20516;-73
2022/01/27 06:52:02;;;;;;;48.77;14.77;;;5.90;87.40;;;;;;5033432;28;20517;-73
2022/01/27 06:54:28;;;;;;;46.80;15.38;;;5.90;87.50;;;;;;5044844;28;20049;-73
2022/01/27 06:56:54;;;;;;;45.80;14.87;;;5.90;87.60;;;;;;5018147;28;20036;-73
2022/01/27 06:59:20;;;;;;;46.30;16.48;;;5.90;87.50;;;;;;5028936;28;20107;-73
2022/01/27 07:01:46;;;;;;;43.43;13.97;;;5.90;87.60;;;;;;5050372;28;20452;-73
2022/01/27 07:04:11;;;;;;;37.13;13.77;;;6.00;87.60;;;;;;5065775;28;20090;-73
2022/01/27 07:06:39;;;;;;;36.87;14.17;;;6.00;87.50;;;;;;5033141;28;20540;-73
2022/01/27 07:09:06;;;;;;;38.65;13.45;;;6.00;87.50;;;;;;5038105;28;20048;-73
2022/01/27 07:11:31;;;;;;;39.80;13.23;;;6.00;87.50;;;;;;5038407;28;20094;-73
2022/01/27 07:13:57;;;;;;;42.40;13.80;;;6.10;87.40;;;;;;5041054;28;20143;-73
2022/01/27 07:16:23;;;;;;;37.17;13.23;;;6.10;87.50;;;;;;5050926;28;20055;-73
2022/01/27 07:18:51;;;;;;;42.93;13.63;;;6.10;87.40;;;;;;5043120;28;20044;-73
2022/01/27 07:21:16;;;;;;;46.72;12.80;;;6.10;87.20;;;;;;5062131;28;20118;-73
2022/01/27 07:23:42;;;;;;;40.63;12.57;;;6.20;87.00;;;;;;5044709;28;20112;-73
2022/01/27 07:26:08;;;;;;;43.60;12.87;;;6.20;87.00;;;;;;5061851;28;20044;-73
2022/01/27 07:28:34;;;;;;;33.88;11.50;;;6.20;86.90;;;;;;5031310;28;20033;-73
2022/01/27 07:31:01;;;;;;;36.40;11.70;;;6.20;86.90;;;;;;5042543;28;20094;-73
2022/01/27 07:33:27;;;;;;;41.28;11.13;;;6.30;86.80;;;;;;5030722;28;20052;-73
2022/01/27 07:35:52;;;;;;;37.07;11.63;;;6.30;86.70;;;;;;5045385;28;20451;-73
2022/01/27 07:38:18;;;;;;;36.93;11.60;;;6.30;86.70;;;;;;5033416;28;20052;-73
2022/01/27 07:40:44;;;;;;;37.13;11.70;;;6.30;86.70;;;;;;5047579;28;20037;-73
2022/01/27 07:43:13;;;;;;;33.67;10.40;;;6.30;86.70;;;;;;5030351;28;20313;-73
2022/01/27 07:45:39;;;;;;;38.08;10.55;;;6.40;86.60;;;;;;5039233;28;20037;-73
2022/01/27 07:48:04;;;;;;;34.77;10.27;;;6.40;86.60;;;;;;5033821;28;20079;-74
2022/01/27 07:50:31;;;;;;;27.87;9.33;;;6.40;86.60;;;;;;5033223;28;20052;-73
2022/01/27 07:52:57;;;;;;;27.58;9.20;;;6.50;86.30;;;;;;5026963;28;20041;-73
2022/01/27 07:55:23;;;;;;;28.50;8.88;;;6.50;86.20;;;;;;5039111;28;20036;-73
2022/01/27 07:57:49;;;;;;;38.23;9.90;;;6.50;85.90;;;;;;5028944;28;20114;-73
2022/01/27 08:00:15;;;;;;;28.35;9.10;;;6.60;86.10;;;;;;5037026;28;20686;-73
2022/01/27 08:02:41;;;;;;;27.70;9.27;;;6.60;85.80;;;;;;5033868;28;20033;-73
2022/01/27 08:05:07;;;;;;;32.95;9.35;;;6.60;85.90;;;;;;5019505;28;20296;-73
2022/01/27 08:07:33;;;;;;;32.58;9.63;;;6.70;85.90;;;;;;5039066;28;20088;-73
2022/01/27 08:09:59;;;;;;;32.37;8.73;;;6.70;85.70;;;;;;5025051;28;20509;-73
2022/01/27 08:12:25;;;;;;;30.83;9.53;;;6.70;85.80;;;;;;5055002;28;20032;-73
2022/01/27 08:14:51;;;;;;;38.40;8.83;;;6.80;85.80;;;;;;5055593;28;20052;-73
2022/01/27 08:17:17;;;;;;;25.20;7.90;;;6.80;85.70;;;;;;5022537;28;20041;-73
2022/01/27 08:19:43;;;;;;;29.20;7.38;;;6.90;85.70;;;;;;5039767;28;20124;-73
2022/01/27 08:22:10;;;;;;;35.90;8.13;;;6.90;85.60;;;;;;5052967;28;20049;-73
2022/01/27 08:24:37;;;;;;;24.63;7.18;;;6.90;85.50;;;;;;5038628;28;20041;-73
2022/01/27 08:27:05;;;;;;;19.50;6.65;;;6.90;85.40;;;;;;5056674;28;20052;-73
2022/01/27 08:29:38;;;;;;;28.75;7.35;;;7.00;85.40;;;;;;5060252;28;20044;-73
2022/01/27 08:32:10;;;;;;;24.98;7.20;;;7.00;85.40;;;;;;5019434;28;20068;-73
2022/01/27 08:34:41;;;;;;;30.13;6.75;;;7.10;85.00;;;;;;5033969;28;20044;-73
2022/01/27 08:37:18;;;;;;;26.90;7.80;;;7.10;84.90;;;;;;5056218;28;20412;-73
2022/01/27 08:39:48;;;;;;;28.27;6.95;;;7.00;85.10;;;;;;5034117;28;20446;-73
2022/01/27 08:42:15;;;;;;;26.23;7.03;;;7.00;84.80;;;;;;5056556;28;20486;-73
2022/01/27 08:44:41;;;;;;;20.98;5.80;;;7.00;84.90;;;;;;5030716;28;20187;-73
2022/01/27 08:47:07;;;;;;;28.40;6.07;;;7.00;84.80;;;;;;5044000;28;20142;-73
2022/01/27 08:49:34;;;;;;;28.88;6.75;;;7.10;84.80;;;;;;5050914;28;20037;-73
2022/01/27 08:52:02;;;;;;;21.83;6.90;;;7.10;84.90;;;;;;5023977;28;20037;-73
2022/01/27 08:54:28;;;;;;;24.98;5.47;;;7.10;85.00;;;;;;5047055;28;20032;-73
2022/01/27 08:56:53;;;;;;;28.03;6.93;;;7.20;84.90;;;;;;5057368;28;20117;-73
2022/01/27 08:59:19;;;;;;;22.10;5.63;;;7.20;84.70;;;;;;5034626;28;20063;-73
2022/01/27 09:01:46;;;;;;;23.40;6.25;;;7.20;84.70;;;;;;5051986;28;20045;-73
2022/01/27 09:04:12;;;;;;;26.67;5.93;;;7.20;84.60;;;;;;5039813;28;20044;-73
2022/01/27 09:06:38;;;;;;;27.45;5.47;;;7.30;84.60;;;;;;5047280;28;20028;-73
2022/01/27 09:09:05;;;;;;;21.23;5.60;;;7.30;84.40;;;;;;5040492;28;20045;-73
2022/01/27 09:11:32;;;;;;;26.98;6.22;;;7.30;84.40;;;;;;5026732;28;20076;-73
2022/01/27 09:14:03;;;;;;;26.50;6.18;;;7.40;84.40;;;;;;5051438;28;20132;-73
2022/01/27 09:16:31;;;;;;;26.63;6.20;;;7.40;84.30;;;;;;5060853;28;20036;-73
2022/01/27 09:18:59;;;;;;;30.08;6.40;;;7.40;84.20;;;;;;5036296;28;20067;-73
2022/01/27 09:21:28;;;;;;;26.55;6.78;;;7.50;84.10;;;;;;5051994;28;20497;-73
2022/01/27 09:23:54;;;;;;;25.05;5.70;;;7.50;84.10;;;;;;5043913;28;20065;-73
2022/01/27 09:26:49;;;;;;;29.48;7.05;;;7.50;84.00;;;;;;5039282;28;20086;-72
2022/01/27 09:29:17;;;;;;;22.80;5.25;;;7.50;83.90;;;;;;5068877;28;20158;-73
2022/01/27 09:31:43;;;;;;;26.40;6.05;;;7.50;83.90;;;;;;5035718;28;20040;-72
2022/01/27 09:34:09;;;;;;;26.88;5.53;;;7.50;83.90;;;;;;5036243;28;20119;-73
2022/01/27 09:36:35;;;;;;;26.83;5.17;;;7.40;84.00;;;;;;5024621;28;20187;-73
2022/01/27 09:39:00;;;;;;;25.13;5.67;;;7.40;84.10;;;;;;5025880;28;20044;-73
2022/01/27 09:41:28;;;;;;;25.40;5.37;;;7.40;84.20;;;;;;5031284;28;20044;-73
2022/01/27 09:43:54;;;;;;;23.85;5.68;;;7.50;84.20;;;;;;5031758;28;20106;-73
2022/01/27 09:46:21;;;;;;;23.70;5.95;;;7.50;84.30;;;;;;5049504;28;20071;-73
2022/01/27 09:48:52;;;;;;;30.17;5.95;;;7.60;84.20;;;;;;5061937;28;20040;-73
2022/01/27 09:51:26;;;;;;;31.02;5.72;;;7.60;84.20;;;;;;5033520;28;20048;-73
2022/01/27 09:53:55;;;;;;;29.40;5.80;;;7.70;84.10;;;;;;5042862;28;20885;-73
2022/01/27 09:56:22;;;;;;;28.20;6.25;;;7.70;84.20;;;;;;5054223;28;20055;-73
2022/01/27 09:58:51;;;;;;;22.10;5.45;;;7.80;84.20;;;;;;5040345;28;20091;-73
2022/01/27 10:01:17;;;;;;;25.45;5.32;;;7.90;84.10;;;;;;5067322;28;20055;-73
2022/01/27 10:03:58;;;;;;;22.08;4.65;;;8.00;83.90;;;;;;5039046;28;20048;-73
2022/01/27 10:06:32;;;;;;;22.17;5.88;;;8.00;83.70;;;;;;5052877;28;20033;-73
2022/01/27 10:09:11;;;;;;;20.52;5.63;;;8.10;83.60;;;;;;5047402;28;20052;-73
2022/01/27 10:11:37;;;;;;;23.00;5.97;;;8.00;83.30;;;;;;5037286;28;20045;-73
2022/01/27 10:14:25;;;;;;;26.48;5.55;;;8.00;83.40;;;;;;5029223;28;20064;-74
2022/01/27 10:16:58;;;;;;;18.45;5.20;;;8.00;83.20;;;;;;5040303;28;20093;-73
2022/01/27 10:19:26;;;;;;;21.20;5.53;;;8.00;83.10;;;;;;5041848;28;20052;-73
2022/01/27 10:21:59;;;;;;;21.25;5.25;;;8.00;83.10;;;;;;5039537;28;20060;-73
2022/01/27 10:24:27;;;;;;;19.35;4.60;;;8.00;83.40;;;;;;5038229;28;20202;-73
2022/01/27 10:27:21;;;;;;;18.50;4.82;;;8.10;83.60;;;;;;5041149;28;20113;-73
2022/01/27 10:32:44;;;;;;;18.50;4.57;;;8.30;83.50;;;;;;5050492;28;20049;-73
2022/01/27 10:35:12;;;;;;;19.83;4.30;;;8.40;83.20;;;;;;5054048;28;20052;-73
2022/01/27 10:37:54;;;;;;;18.40;4.05;;;8.40;83.00;;;;;;5044921;28;20040;-73
2022/01/27 10:40:21;;;;;;;19.60;4.10;;;8.50;82.60;;;;;;5052607;28;20048;-73
2022/01/27 10:43:02;;;;;;;19.58;3.88;;;8.60;82.20;;;;;;5047307;28;20045;-74
2022/01/27 10:45:27;;;;;;;24.77;5.15;;;8.50;82.20;;;;;;5053264;28;20041;-73
2022/01/27 10:48:23;;;;;;;21.73;4.43;;;8.60;82.00;;;;;;5058489;28;20386;-73
2022/01/27 10:50:59;;;;;;;;;;;8.70;81.70;;;;;;5044201;28;20099;-73
2022/01/27 10:53:59;;;;;;;18.85;4.07;;;8.70;81.40;;;;;;5059809;28;19920;-73
2022/01/27 10:56:35;;;;;;;18.88;4.05;;;8.70;81.10;;;;;;5054525;28;20409;-73
2022/01/27 10:59:09;;;;;;;17.92;3.28;;;8.70;81.00;;;;;;5039044;28;20048;-73
2022/01/27 11:01:41;;;;;;;27.05;3.90;;;8.70;81.00;;;;;;5059126;28;20094;-72
2022/01/27 11:04:11;;;;;;;16.52;4.05;;;8.70;81.10;;;;;;5060189;28;20131;-72
2022/01/27 11:06:51;;;;;;;19.50;3.83;;;8.70;81.20;;;;;;5031354;28;20037;-73
2022/01/27 11:09:18;;;;;;;22.08;4.80;;;8.70;81.00;;;;;;5059758;28;20029;-73
2022/01/27 11:11:45;;;;;;;22.70;3.92;;;8.60;81.00;;;;;;5059261;28;20029;-73
2022/01/27 11:14:11;;;;;;;17.10;3.50;;;8.60;80.80;;;;;;5030176;28;20097;-73
2022/01/27 11:16:40;;;;;;;23.30;4.70;;;8.70;80.10;;;;;;5059592;28;20057;-73
2022/01/27 11:21:45;;;;;;;21.80;4.03;;;8.70;80.20;;;;;;5060741;28;20049;-73
2022/01/27 11:24:28;;;;;;;17.30;3.83;;;8.70;80.30;;;;;;5032263;28;20520;-73
2022/01/27 11:26:58;;;;;;;25.13;4.68;;;8.80;79.80;;;;;;5045887;28;20072;-72
2022/01/27 11:29:26;;;;;;;20.60;3.97;;;8.80;79.90;;;;;;5038776;28;20075;-72
2022/01/27 11:32:04;;;;;;;20.52;4.45;;;8.80;80.20;;;;;;5052895;28;20048;-72
2022/01/27 11:34:52;;;;;;;20.85;4.20;;;8.80;80.00;;;;;;5036532;28;20048;-72
2022/01/27 11:37:36;;;;;;;27.05;5.85;;;8.80;80.20;;;;;;5055180;28;20108;-72
2022/01/27 11:40:08;;;;;;;20.48;4.35;;;8.80;80.00;;;;;;5052883;28;20123;-72
2022/01/27 11:42:41;;;;;;;17.13;4.35;;;8.80;80.00;;;;;;5058080;28;20052;-72
2022/01/27 11:45:28;;;;;;;22.33;3.85;;;8.80;80.20;;;;;;5043316;28;20056;-72
2022/01/27 11:48:00;;;;;;;24.02;5.22;;;8.90;79.80;;;;;;5062120;28;20083;-72
2022/01/27 11:50:34;;;;;;;19.55;3.70;;;8.80;79.40;;;;;;5039103;28;20071;-72
2022/01/27 11:53:02;;;;;;;24.50;4.93;;;8.80;79.70;;;;;;5061057;28;20072;-72
2022/01/27 11:55:29;;;;;;;18.83;3.83;;;8.90;79.70;;;;;;5029020;28;20036;-72
2022/01/27 11:57:57;;;;;;;16.98;3.50;;;8.90;79.70;;;;;;5037616;28;20040;-72
2022/01/27 12:00:26;;;;;;;26.73;5.47;;;8.90;79.50;;;;;;5058475;28;20094;-73
2022/01/27 12:03:07;;;;;;;19.00;3.75;;;8.90;79.40;;;;;;5049721;28;20048;-73
2022/01/27 12:05:35;;;;;;;21.65;3.90;;;8.90;79.80;;;;;;5050139;28;20048;-73
2022/01/27 12:08:13;;;;;;;21.45;3.58;;;9.00;79.80;;;;;;5037331;28;20099;-73
2022/01/27 12:10:40;;;;;;;25.58;3.83;;;9.00;78.70;;;;;;5046019;28;20045;-73
2022/01/27 12:13:34;;;;;;;27.35;4.13;;;9.00;79.10;;;;;;5029566;28;20037;-72
2022/01/27 12:19:09;;;;;;;21.42;3.78;;;9.00;78.30;;;;;;5061194;28;20051;-72
2022/01/27 12:21:51;;;;;;;23.42;3.95;;;8.90;77.70;;;;;;5037480;28;20036;-72
2022/01/27 12:24:24;;;;;;;19.35;3.50;;;8.90;77.70;;;;;;5053106;28;20080;-72
2022/01/27 12:27:00;;;;;;;25.02;3.80;;;8.90;77.90;;;;;;5063636;28;20044;-72
2022/01/27 12:29:52;;;;;;;21.38;3.17;;;8.90;77.60;;;;;;5057300;28;20036;-72
2022/01/27 12:32:17;;;;;;;22.90;3.25;;;8.90;77.30;;;;;;5060906;28;20098;-72
2022/01/27 12:35:00;;;;;;;23.10;3.70;;;8.90;77.60;;;;;;5068905;28;20393;-72
2022/01/27 12:37:36;;;;;;;19.10;3.83;;;8.80;77.50;;;;;;5060669;28;20131;-72
2022/01/27 12:40:07;;;;;;;18.88;3.60;;;8.80;77.20;;;;;;5035611;28;20045;-72
2022/01/27 12:42:38;;;;;;;26.92;4.35;;;8.80;77.50;;;;;;5059811;28;20088;-72
2022/01/27 12:45:11;;;;;;;21.77;2.90;;;8.80;77.30;;;;;;5048080;28;20123;-72
2022/01/27 12:47:39;;;;;;;23.05;2.90;;;8.80;76.90;;;;;;5037033;28;20041;-72
2022/01/27 12:50:09;;;;;;;23.48;3.75;;;8.80;77.00;;;;;;5034714;28;20043;-72
2022/01/27 12:52:43;;;;;;;19.55;3.40;;;8.80;76.40;;;;;;5037927;28;20094;-72
2022/01/27 12:55:11;;;;;;;17.80;3.58;;;8.80;76.60;;;;;;5046679;28;20044;-72
2022/01/27 12:57:38;;;;;;;15.73;3.55;;;8.80;76.50;;;;;;5061025;28;20045;-72
2022/01/27 13:00:06;;;;;;;21.00;3.30;;;8.80;76.10;;;;;;5040762;28;20049;-72
2022/01/27 13:02:32;;;;;;;24.90;3.15;;;8.80;75.80;;;;;;5063179;28;20040;-72
2022/01/27 13:04:59;;;;;;;20.85;3.95;;;8.70;75.80;;;;;;5051721;28;20049;-72
2022/01/27 13:07:26;;;;;;;19.63;2.72;;;8.60;75.90;;;;;;5058114;28;20099;-72
2022/01/27 13:10:03;;;;;;;16.02;3.20;;;8.50;76.00;;;;;;5039406;28;20176;-72
2022/01/27 13:12:35;;;;;;;23.40;3.60;;;8.40;76.30;;;;;;5047938;28;20070;-72
2022/01/27 13:15:10;;;;;;;18.95;3.13;;;8.40;76.20;;;;;;5028380;28;20065;-72
2022/01/27 13:17:47;;;;;;;21.25;3.35;;;8.40;76.60;;;;;;5038452;28;20053;-72
2022/01/27 13:20:33;;;;;;;22.33;3.33;;;8.50;76.40;;;;;;5060833;28;20060;-72
2022/01/27 13:23:10;;;;;;;20.83;3.92;;;8.70;76.30;;;;;;5058918;28;20072;-72
2022/01/27 13:25:40;;;;;;;21.58;3.17;;;8.70;76.10;;;;;;5060248;28;20120;-72
2022/01/27 13:28:11;;;;;;;21.67;3.40;;;8.80;76.50;;;;;;5059767;28;20435;-72
2022/01/27 13:30:37;;;;;;;23.52;3.60;;;8.80;75.70;;;;;;5039727;28;20071;-72
2022/01/27 13:33:06;;;;;;;25.85;3.30;;;8.80;75.60;;;;;;5057908;28;20040;-72
2022/01/27 13:35:36;;;;;;;24.48;3.95;;;8.80;75.30;;;;;;5044122;28;20513;-72
2022/01/27 13:43:52;;;;;;;19.27;2.75;;;8.80;75.30;;;;;;5065609;28;20123;-72
2022/01/27 13:46:41;;;;;;;23.42;3.28;;;8.70;74.60;;;;;;5040794;28;20448;-72
2022/01/27 13:49:22;;;;;;;21.13;3.72;;;8.70;75.10;;;;;;5042040;28;20434;-72
2022/01/27 13:52:01;;;;;;;17.77;3.05;;;8.70;74.80;;;;;;5057225;28;20055;-72
2022/01/27 13:54:29;;;;;;;20.98;3.17;;;8.60;74.60;;;;;;5035055;28;20048;-72
2022/01/27 13:57:03;;;;;;;25.35;3.15;;;8.50;75.00;;;;;;5039006;28;20130;-72
2022/01/27 13:59:40;;;;;;;18.50;2.95;;;8.50;74.90;;;;;;5025966;28;20040;-72
2022/01/27 14:02:28;;;;;;;19.73;3.22;;;8.50;75.10;;;;;;5040208;28;20085;-72